createdAt,value
2019-04-22T00:02:01.961Z,28.60
2019-04-22T00:04:42.154Z,33.33
2019-04-22T00:07:28.964Z,51.53
2019-04-22T00:10:06.356Z,52.83
2019-04-22T00:12:42.448Z,60.30
2019-04-22T00:15:08.128Z,63.50
2019-04-22T00:20:14.706Z,66.90
2019-04-22T00:22:52.017Z,76.17
2019-04-22T00:25:44.042Z,80.70
2019-04-22T00:27:59.087Z,85.17
2019-04-22T00:30:22.520Z,86.80
2019-04-22T00:32:55.860Z,91.40
2019-04-22T00:35:30.554Z,78.90
2019-04-22T00:38:14.378Z,75.87
2019-04-22T00:43:06.509Z,63.50
2019-04-22T00:45:40.169Z,55.70
2019-04-22T00:48:16.415Z,47.27
2019-04-22T00:50:51.874Z,53.97
2019-04-22T00:53:16.419Z,62.33
2019-04-22T00:56:07.883Z,55.23
2019-04-22T00:58:39.421Z,46.60
2019-04-22T01:01:17.488Z,45.77
2019-04-22T01:06:15.782Z,41.37
2019-04-22T01:08:53.795Z,48.67
2019-04-22T01:11:19.566Z,46.43
2019-04-22T01:13:44.222Z,45.47
2019-04-22T01:16:21.646Z,39.33
2019-04-22T01:18:49.063Z,38.50
2019-04-22T01:23:56.594Z,28.80
2019-04-22T01:26:20.247Z,23.77
2019-04-22T01:28:50.092Z,23.23
2019-04-22T01:31:16.215Z,21.47
2019-04-22T01:33:48.381Z,24.27
2019-04-22T01:36:33.452Z,24.57
2019-04-22T01:39:13.465Z,22.87
2019-04-22T01:41:48.814Z,24.73
2019-04-22T01:46:47.642Z,24.40
2019-04-22T01:49:14.864Z,23.80
2019-04-22T01:54:23.629Z,27.20
2019-04-22T01:59:11.268Z,23.37
2019-04-22T02:01:56.195Z,28.00
2019-04-22T02:04:25.609Z,26.03
2019-04-22T02:06:58.660Z,26.03
2019-04-22T02:09:31.143Z,25.27
2019-04-22T02:12:04.685Z,23.47
2019-04-22T02:17:02.336Z,21.80
2019-04-22T02:19:30.488Z,25.37
2019-04-22T02:22:03.946Z,21.10
2019-04-22T02:24:39.805Z,21.70
2019-04-22T02:27:04.487Z,24.73
2019-04-22T02:29:35.556Z,23.47
2019-04-22T02:34:50.886Z,21.33
2019-04-22T02:37:18.546Z,21.47
2019-04-22T02:39:48.668Z,21.03
2019-04-22T02:44:46.628Z,18.67
2019-04-22T02:47:27.567Z,17.47
2019-04-22T02:54:55.096Z,23.97
2019-04-22T02:57:31.882Z,21.23
2019-04-22T03:00:07.389Z,25.40
2019-04-22T03:04:59.897Z,26.63
2019-04-22T03:07:23.463Z,26.67
2019-04-22T03:09:57.780Z,26.03
2019-04-22T03:12:29.039Z,33.57
2019-04-22T03:15:05.946Z,34.40
2019-04-22T03:20:04.024Z,31.00
2019-04-22T03:22:34.918Z,30.97
2019-04-22T03:27:37.223Z,24.70
2019-04-22T03:43:02.407Z,26.27
2019-04-22T03:48:01.522Z,24.90
2019-04-22T03:52:52.641Z,22.13
2019-04-22T03:57:51.954Z,23.47
2019-04-22T04:03:04.944Z,19.70
2019-04-22T04:05:39.529Z,20.93
2019-04-22T04:13:09.505Z,22.40
2019-04-22T04:15:32.802Z,20.17
2019-04-22T04:21:09.248Z,21.00
2019-04-22T04:23:32.453Z,21.73
2019-04-22T04:28:29.476Z,18.27
2019-04-22T04:30:36.668Z,20.87
2019-04-22T04:33:17.427Z,18.53
2019-04-22T04:38:17.221Z,19.40
2019-04-22T04:41:08.824Z,18.33
2019-04-22T04:43:18.984Z,17.10
2019-04-22T04:48:23.450Z,19.33
2019-04-22T04:53:33.741Z,19.27
2019-04-22T04:55:53.621Z,15.87
2019-04-22T04:58:36.696Z,17.00
2019-04-22T05:01:07.362Z,15.70
2019-04-22T05:03:39.902Z,17.70
2019-04-22T05:05:57.024Z,15.60
2019-04-22T05:08:52.887Z,15.57
2019-04-22T05:13:42.639Z,15.00
2019-04-22T05:16:17.612Z,14.47
2019-04-22T05:18:41.200Z,15.57
2019-04-22T05:21:14.063Z,15.17
2019-04-22T05:23:38.771Z,15.00
2019-04-22T05:26:05.832Z,14.23
2019-04-22T05:28:35.110Z,14.60
2019-04-22T05:31:11.297Z,17.30
2019-04-22T05:33:34.953Z,16.47
2019-04-22T05:41:11.617Z,13.63
2019-04-22T05:43:44.273Z,13.00
2019-04-22T05:46:09.629Z,14.13
2019-04-22T05:48:43.987Z,13.77
2019-04-22T05:51:22.782Z,13.40
2019-04-22T05:53:47.974Z,14.77
2019-04-22T05:56:28.106Z,13.73
2019-04-22T05:58:55.167Z,15.27
2019-04-22T06:04:04.007Z,13.30
2019-04-22T06:06:22.741Z,13.30
2019-04-22T06:08:57.822Z,15.97
2019-04-22T06:13:56.096Z,13.57
2019-04-22T06:16:40.079Z,12.73
2019-04-22T06:19:08.680Z,15.03
2019-04-22T06:21:39.476Z,13.17
2019-04-22T06:24:11.237Z,13.77
2019-04-22T06:32:03.624Z,12.60
2019-04-22T06:34:17.841Z,13.27
2019-04-22T06:36:47.627Z,15.47
2019-04-22T06:39:14.674Z,13.63
2019-04-22T06:41:47.915Z,14.13
2019-04-22T06:44:29.877Z,14.40
2019-04-22T06:46:49.191Z,13.20
2019-04-22T06:49:27.323Z,15.00
2019-04-22T06:52:08.038Z,12.30
2019-04-22T06:54:21.711Z,14.23
2019-04-22T06:56:54.650Z,11.43
2019-04-22T06:59:26.464Z,14.60
2019-04-22T07:01:55.133Z,14.23
2019-04-22T07:04:25.582Z,12.03
2019-04-22T07:12:02.131Z,11.93
2019-04-22T07:14:32.036Z,12.23
2019-04-22T07:17:03.656Z,12.57
2019-04-22T07:19:33.741Z,13.17
2019-04-22T07:22:04.061Z,13.93
2019-04-22T07:27:04.685Z,12.60
2019-04-22T07:29:39.006Z,14.47
2019-04-22T07:32:08.860Z,15.10
2019-04-22T07:34:42.644Z,10.73
2019-04-22T07:37:19.743Z,12.17
2019-04-22T07:39:39.236Z,12.53
2019-04-22T07:42:15.095Z,13.13
2019-04-22T07:44:45.212Z,8.73
2019-04-22T07:47:18.802Z,11.63
2019-04-22T07:52:20.691Z,9.70
2019-04-22T07:54:52.620Z,10.23
2019-04-22T07:59:57.565Z,7.17
2019-04-22T08:02:26.080Z,9.03
2019-04-22T08:05:05.462Z,11.17
2019-04-22T08:10:12.404Z,11.10
2019-04-22T08:12:36.130Z,11.70
2019-04-22T08:14:58.451Z,10.57
2019-04-22T08:17:52.131Z,8.07
2019-04-22T08:20:05.548Z,9.50
2019-04-22T08:22:37.639Z,10.17
2019-04-22T08:25:06.742Z,7.03
2019-04-22T08:27:33.323Z,8.47
2019-04-22T08:32:41.416Z,9.73
2019-04-22T08:35:13.208Z,8.10
2019-04-22T08:40:12.677Z,8.27
2019-04-22T08:47:41.915Z,5.87
2019-04-22T08:50:16.469Z,11.70
2019-04-22T08:52:52.488Z,8.50
2019-04-22T08:55:17.985Z,7.37
2019-04-22T08:58:13.028Z,7.50
2019-04-22T09:00:20.009Z,6.77
2019-04-22T09:02:53.931Z,6.80
2019-04-22T09:05:37.360Z,9.00
2019-04-22T09:07:52.743Z,6.33
2019-04-22T09:10:24.186Z,10.67
2019-04-22T09:15:30.398Z,7.23
2019-04-22T09:18:02.365Z,8.53
2019-04-22T09:20:32.480Z,6.13
2019-04-22T09:23:07.590Z,6.73
2019-04-22T09:25:43.999Z,7.93
2019-04-22T09:28:10.412Z,6.93
2019-04-22T09:30:49.565Z,6.87
2019-04-22T09:33:14.190Z,6.57
2019-04-22T09:36:13.869Z,7.47
2019-04-22T09:38:25.421Z,7.10
2019-04-22T09:40:45.713Z,6.37
2019-04-22T09:43:18.398Z,8.07
2019-04-22T09:45:47.862Z,8.53
2019-04-22T09:48:23.986Z,6.53
2019-04-22T09:53:23.862Z,8.40
2019-04-22T09:55:57.458Z,7.93
2019-04-22T09:58:23.581Z,5.87
2019-04-22T10:03:51.650Z,8.00
2019-04-22T10:06:29.443Z,9.13
2019-04-22T10:09:01.711Z,7.93
2019-04-22T10:11:26.965Z,10.40
2019-04-22T10:13:53.753Z,7.87
2019-04-22T10:16:26.899Z,7.73
2019-04-22T10:21:35.582Z,8.53
2019-04-22T10:23:57.960Z,9.27
2019-04-22T10:26:27.900Z,8.50
2019-04-22T10:29:00.509Z,9.23
2019-04-22T10:31:39.535Z,9.90
2019-04-22T10:33:49.660Z,8.00
2019-04-22T10:36:07.866Z,8.70
2019-04-22T10:38:37.677Z,7.60
2019-04-22T10:41:08.283Z,8.93
2019-04-22T10:43:38.982Z,8.73
2019-04-22T10:46:10.387Z,11.50
2019-04-22T10:48:40.245Z,10.20
2019-04-22T10:51:10.680Z,9.47
2019-04-22T10:53:41.614Z,8.10
2019-04-22T10:56:12.664Z,7.60
2019-04-22T10:58:42.625Z,9.13
2019-04-22T11:01:13.512Z,11.07
2019-04-22T11:03:43.381Z,10.67
2019-04-22T11:06:15.067Z,14.27
2019-04-22T11:08:52.428Z,9.47
2019-04-22T11:11:31.495Z,11.20
2019-04-22T11:13:47.615Z,11.53
2019-04-22T11:16:17.693Z,10.23
2019-04-22T11:18:47.582Z,10.33
2019-04-22T11:21:18.271Z,10.43
2019-04-22T11:23:47.527Z,12.07
2019-04-22T11:26:17.765Z,14.37
2019-04-22T11:28:47.636Z,12.10
2019-04-22T11:31:19.004Z,9.90
2019-04-22T11:33:48.532Z,15.90
2019-04-22T11:36:18.036Z,11.07
2019-04-22T11:38:53.035Z,9.40
2019-04-22T11:41:19.459Z,7.97
2019-04-22T11:43:49.524Z,10.17
2019-04-22T11:46:21.094Z,7.50
2019-04-22T11:48:51.900Z,8.47
2019-04-22T11:51:22.172Z,11.43
2019-04-22T11:53:52.591Z,10.20
2019-04-22T11:56:23.011Z,10.13
2019-04-22T11:58:52.977Z,10.33
2019-04-22T12:01:24.478Z,8.90
2019-04-22T12:03:57.827Z,10.50
2019-04-22T12:06:28.118Z,6.17
2019-04-22T12:08:59.481Z,6.43
2019-04-22T12:11:30.282Z,7.90
2019-04-22T12:14:02.134Z,8.80
2019-04-22T12:16:32.024Z,5.67
2019-04-22T12:19:01.230Z,7.37
2019-04-22T12:21:31.129Z,5.40
2019-04-22T12:24:01.172Z,6.33
2019-04-22T12:26:32.549Z,5.17
2019-04-22T12:29:02.903Z,6.60
2019-04-22T12:31:33.494Z,4.87
2019-04-22T12:34:03.678Z,5.73
2019-04-22T12:36:33.452Z,6.30
2019-04-22T12:39:03.309Z,5.40
2019-04-22T12:41:33.872Z,7.77
2019-04-22T12:44:05.204Z,3.53
2019-04-22T12:46:38.395Z,4.80
2019-04-22T12:49:08.067Z,8.70
2019-04-22T12:51:38.874Z,5.27
2019-04-22T12:54:08.816Z,5.57
2019-04-22T12:56:39.514Z,7.23
2019-04-22T12:59:09.755Z,5.20
2019-04-22T13:01:39.601Z,8.00
2019-04-22T13:04:11.774Z,7.13
2019-04-22T13:06:41.895Z,5.80
2019-04-22T13:09:12.656Z,5.63
2019-04-22T13:11:44.188Z,8.33
2019-04-22T13:14:14.970Z,5.67
2019-04-22T13:16:44.989Z,8.43
2019-04-22T13:19:17.199Z,6.77
2019-04-22T13:21:46.826Z,8.33
2019-04-22T13:24:19.545Z,10.67
2019-04-22T13:26:48.784Z,9.03
2019-04-22T13:29:19.261Z,9.53
2019-04-22T13:31:48.946Z,7.37
2019-04-22T13:34:29.518Z,10.40
2019-04-22T13:36:50.336Z,7.90
2019-04-22T13:39:21.029Z,11.47
2019-04-22T13:41:56.321Z,7.77
2019-04-22T13:44:23.102Z,8.87
2019-04-22T13:47:08.182Z,9.77
2019-04-22T13:52:35.685Z,11.63
2019-04-22T13:54:14.107Z,12.60
2019-04-22T13:57:20.111Z,11.27
2019-04-22T13:59:38.090Z,19.67
2019-04-22T14:02:18.902Z,11.43
2019-04-22T14:04:50.754Z,9.70
2019-04-22T14:07:20.894Z,12.87
2019-04-22T14:09:51.575Z,13.23
2019-04-22T14:12:21.749Z,12.63
2019-04-22T14:14:52.637Z,16.40
2019-04-22T14:17:23.001Z,14.80
2019-04-22T14:19:52.826Z,20.47
2019-04-22T14:22:22.302Z,20.03
2019-04-22T14:24:52.417Z,15.73
2019-04-22T14:27:36.980Z,15.00
2019-04-22T14:29:53.605Z,17.17
2019-04-22T14:32:27.438Z,16.37
2019-04-22T14:34:55.287Z,19.20
2019-04-22T14:37:24.854Z,15.93
2019-04-22T14:39:54.043Z,15.67
2019-04-22T14:42:49.418Z,18.10
2019-04-22T14:45:21.965Z,16.73
2019-04-22T14:47:52.648Z,14.10
2019-04-22T14:50:17.678Z,16.37
2019-04-22T14:52:50.685Z,16.60
2019-04-22T14:55:07.998Z,15.23
2019-04-22T14:57:31.765Z,18.77
2019-04-22T15:00:02.261Z,16.23
2019-04-22T15:02:34.191Z,14.90
2019-04-22T15:05:04.275Z,16.40
2019-04-22T15:07:35.002Z,17.70
2019-04-22T15:10:10.373Z,16.87
2019-04-22T15:12:46.117Z,20.00
2019-04-22T15:15:13.484Z,19.03
2019-04-22T15:17:59.189Z,18.47
2019-04-22T15:20:37.384Z,21.00
2019-04-22T15:23:06.933Z,17.33
2019-04-22T15:25:36.819Z,17.97
2019-04-22T15:28:06.266Z,20.27
2019-04-22T15:30:35.492Z,15.07
2019-04-22T15:33:05.519Z,17.53
2019-04-22T15:35:35.440Z,17.43
2019-04-22T15:38:06.821Z,15.43
2019-04-22T15:40:36.567Z,16.13
2019-04-22T15:43:06.647Z,17.03
2019-04-22T15:45:36.826Z,18.70
2019-04-22T15:48:06.475Z,18.13
2019-04-22T15:50:36.822Z,17.07
2019-04-22T15:53:07.687Z,17.17
2019-04-22T15:55:38.784Z,15.03
2019-04-22T15:58:08.178Z,15.63
2019-04-22T16:00:51.822Z,17.93
2019-04-22T16:03:12.355Z,19.63
2019-04-22T16:05:41.835Z,15.37
2019-04-22T16:08:13.148Z,16.73
2019-04-22T16:10:42.317Z,16.37
2019-04-22T16:13:19.148Z,18.73
2019-04-22T16:15:42.757Z,23.43
2019-04-22T16:18:14.603Z,18.93
2019-04-22T16:20:43.941Z,21.10
2019-04-22T16:23:15.580Z,22.13
2019-04-22T16:26:05.238Z,20.70
2019-04-22T16:28:35.401Z,22.57
2019-04-22T16:31:04.825Z,18.67
2019-04-22T16:33:38.381Z,18.97
2019-04-22T16:36:07.112Z,22.40
2019-04-22T16:38:37.278Z,19.07
2019-04-22T16:41:06.780Z,19.30
2019-04-22T16:43:36.580Z,20.03
2019-04-22T16:46:07.639Z,20.43
2019-04-22T16:48:38.034Z,18.33
2019-04-22T16:51:07.621Z,19.83
2019-04-22T16:53:37.100Z,19.83
2019-04-22T16:56:07.027Z,20.50
2019-04-22T16:58:36.838Z,19.87
2019-04-22T17:01:08.214Z,20.10
2019-04-22T17:04:00.642Z,18.27
2019-04-22T17:06:32.173Z,20.10
2019-04-22T17:09:02.689Z,21.30
2019-04-22T17:11:33.884Z,21.73
2019-04-22T17:14:03.509Z,18.00
2019-04-22T17:16:34.458Z,21.10
2019-04-22T17:19:05.789Z,16.73
2019-04-22T17:21:35.531Z,24.93
2019-04-22T17:24:05.721Z,20.27
2019-04-22T17:26:36.607Z,21.03
2019-04-22T17:29:06.628Z,21.03
2019-04-22T17:31:40.824Z,22.60
2019-04-22T17:34:09.584Z,21.60
2019-04-22T17:36:40.527Z,20.40
2019-04-22T17:39:24.440Z,20.23
2019-04-22T17:41:59.641Z,21.33
2019-04-22T17:47:14.108Z,21.17
2019-04-22T17:49:54.104Z,21.80
2019-04-22T17:52:26.218Z,20.33
2019-04-22T17:55:04.559Z,18.27
2019-04-22T17:57:23.977Z,23.50
2019-04-22T17:59:55.086Z,23.23
2019-04-22T18:02:25.207Z,26.27
2019-04-22T18:04:48.104Z,25.93
2019-04-22T18:07:37.160Z,23.80
2019-04-22T18:12:38.289Z,26.20
2019-04-22T18:15:17.826Z,20.33
2019-04-22T18:17:43.596Z,26.33
2019-04-22T18:20:04.642Z,40.10
2019-04-22T18:22:34.709Z,21.73
2019-04-22T18:25:04.971Z,19.60
2019-04-22T18:30:11.409Z,22.27
2019-04-22T18:32:46.724Z,16.53
2019-04-22T18:35:16.676Z,20.87
2019-04-22T18:37:50.058Z,19.77
2019-04-22T18:40:18.624Z,17.93
2019-04-22T18:42:56.652Z,19.43
2019-04-22T18:45:42.353Z,15.37
2019-04-22T18:47:49.124Z,20.50
2019-04-22T18:50:37.057Z,20.00
2019-04-22T18:53:29.755Z,19.03
2019-04-22T18:56:01.700Z,19.20
2019-04-22T18:58:31.828Z,24.17
2019-04-22T19:00:48.875Z,18.10
2019-04-22T19:03:25.392Z,20.27
2019-04-22T19:06:24.364Z,16.70
2019-04-22T19:08:45.101Z,15.03
2019-04-22T19:11:42.797Z,16.83
2019-04-22T19:18:56.419Z,17.43
2019-04-22T19:21:17.702Z,23.53
2019-04-22T19:23:50.225Z,17.27
2019-04-22T19:26:30.904Z,16.53
2019-04-22T19:28:55.573Z,18.10
2019-04-22T19:31:28.591Z,17.23
2019-04-22T19:33:57.846Z,14.80
2019-04-22T19:36:26.197Z,20.33
2019-04-22T19:38:55.275Z,18.37
2019-04-22T19:41:30.600Z,16.50
2019-04-22T19:44:05.413Z,19.40
2019-04-22T19:46:28.334Z,18.23
2019-04-22T19:49:10.660Z,15.47
2019-04-22T19:51:47.683Z,14.67
2019-04-22T19:54:07.868Z,15.83
2019-04-22T19:56:32.249Z,15.97
2019-04-22T19:59:02.143Z,19.63
2019-04-22T20:01:49.512Z,14.37
2019-04-22T20:04:46.296Z,17.47
2019-04-22T20:06:56.561Z,18.20
2019-04-22T20:09:36.494Z,16.57
2019-04-22T20:12:01.101Z,18.53
2019-04-22T20:14:35.856Z,23.57
2019-04-22T20:17:01.799Z,20.73
2019-04-22T20:22:09.741Z,16.70
2019-04-22T20:24:25.923Z,18.43
2019-04-22T20:27:16.442Z,20.50
2019-04-22T20:29:41.740Z,18.80
2019-04-22T20:32:13.162Z,18.03
2019-04-22T20:34:44.786Z,22.57
2019-04-22T20:37:28.334Z,22.77
2019-04-22T20:40:02.513Z,20.33
2019-04-22T20:42:33.710Z,12.90
2019-04-22T20:44:55.114Z,18.13
2019-04-22T20:47:14.996Z,17.83
2019-04-22T20:49:47.492Z,15.63
2019-04-22T20:52:26.671Z,15.70
2019-04-22T20:54:51.099Z,18.57
2019-04-22T20:57:25.941Z,17.83
2019-04-22T20:59:52.514Z,18.90
2019-04-22T21:02:20.915Z,23.37
2019-04-22T21:04:47.807Z,21.27
2019-04-22T21:07:23.779Z,27.67
2019-04-22T21:09:58.064Z,25.13
2019-04-22T21:12:22.374Z,20.93
2019-04-22T21:15:06.493Z,20.37
2019-04-22T21:17:30.991Z,23.43
2019-04-22T21:20:06.944Z,19.03
2019-04-22T21:22:38.627Z,20.57
2019-04-22T21:25:02.369Z,19.53
2019-04-22T21:27:40.693Z,16.87
2019-04-22T21:30:01.884Z,20.90
2019-04-22T21:32:38.921Z,21.03
2019-04-22T21:35:13.368Z,25.43
2019-04-22T21:37:43.054Z,21.10
2019-04-22T21:40:16.416Z,23.43
2019-04-22T21:42:47.193Z,18.23
2019-04-22T21:45:14.710Z,19.73
2019-04-22T21:47:57.472Z,20.27
2019-04-22T21:50:39.459Z,20.20
2019-04-22T21:52:56.409Z,20.50
2019-04-22T21:55:24.793Z,19.97
2019-04-22T21:58:06.823Z,25.17
2019-04-22T22:00:46.014Z,19.67
2019-04-22T22:03:13.081Z,22.13
2019-04-22T22:05:34.358Z,22.27
2019-04-22T22:08:02.836Z,14.87
2019-04-22T22:10:44.995Z,17.87
2019-04-22T22:13:12.372Z,17.77
2019-04-22T22:15:47.505Z,19.70
2019-04-22T22:18:16.514Z,19.30
2019-04-22T22:20:59.842Z,18.07
2019-04-22T22:23:25.383Z,15.80
2019-04-22T22:25:47.693Z,18.70
2019-04-22T22:28:41.772Z,15.63
2019-04-22T22:31:14.811Z,17.33
2019-04-22T22:33:26.557Z,19.67
2019-04-22T22:35:51.697Z,15.80
2019-04-22T22:38:27.215Z,17.60
2019-04-22T22:40:40.440Z,20.03
2019-04-22T22:43:19.056Z,18.67
2019-04-22T22:45:49.140Z,17.03
2019-04-22T22:48:34.815Z,17.43
2019-04-22T22:51:02.040Z,17.00
2019-04-22T22:53:40.372Z,18.07
2019-04-22T22:56:04.915Z,14.93
2019-04-22T22:58:42.573Z,18.43
2019-04-22T23:01:04.472Z,16.67
2019-04-22T23:04:09.980Z,15.70
2019-04-22T23:06:13.400Z,17.80
2019-04-22T23:08:44.689Z,15.43
2019-04-22T23:11:12.738Z,15.87
2019-04-22T23:13:42.631Z,19.03
2019-04-22T23:16:04.215Z,17.07
2019-04-22T23:18:25.908Z,20.10
2019-04-22T23:20:57.400Z,16.10
2019-04-22T23:23:44.919Z,17.53
2019-04-22T23:26:32.226Z,17.07
2019-04-22T23:29:05.016Z,15.60
2019-04-22T23:31:35.498Z,16.10
2019-04-22T23:34:10.677Z,14.03
2019-04-22T23:36:53.751Z,17.50
2019-04-22T23:39:27.438Z,13.37
2019-04-22T23:41:58.712Z,14.50
2019-04-22T23:44:27.200Z,17.20
2019-04-22T23:47:11.017Z,17.70
2019-04-22T23:49:40.333Z,19.83
2019-04-22T23:52:19.134Z,12.57
2019-04-22T23:54:58.781Z,13.93
2019-04-22T23:57:30.788Z,18.03
2019-04-22T23:59:55.294Z,13.07
